Terminal Aerodrome Forecast
Issued by NWS

Home | Current Version | Previous Version | Text Only | Print | Product List | Glossary On
Versions: 1 2 3 4 5 6 7 8 9 10 11 12 13 14 15 16 17
000
FTUS46 KMFR 230538
TAFRBG
TAF
KRBG 230538Z 2306/2406 VRB03KT P6SM BKN040
     FM230900 00000KT P6SM BKN025
     FM231600 VRB02KT P6SM SCT025 BKN100 BKN200
     FM240100 18006KT P6SM -RA BKN035 OVC060=

USA.gov is the U.S. government's official web portal to all federal, state and local government web resources and services.